Date,TemperatureHighF,TemperatureAvgF,TemperatureLowF,DewpointHighF,DewpointAvgF,DewpointLowF,HumidityHigh,HumidityAvg,HumidityLow,PressureMaxIn,PressureMinIn,WindSpeedMaxMPH,WindSpeedAvgMPH,GustSpeedMaxMPH,PrecipitationSumIn
2013-1-1,24,22,14,23,20,12,96,93,88,30.66,30.50,0,0,0,0.00
2013-1-2,31,22,12,25,19,10,96,90,73,30.64,30.53,0,0,0,0.00
2013-1-3,31,15,6,26,13,4,97,91,81,30.53,30.42,0,0,0,0.00
2013-1-4,30,24,10,29,22,8,97,95,91,30.55,30.44,1,0,4,0.00
2013-1-5,39,28,21,34,27,20,98,95,80,30.45,30.24,1,0,3,0.07
2013-1-6,33,30,28,31,29,27,97,96,91,30.25,30.14,1,0,1,0.00
2013-1-7,33,31,29,32,30,28,98,98,97,30.14,29.97,0,0,0,0.00
2013-1-8,36,34,32,35,33,31,99,98,95,30.20,30.04,0,0,0,0.02
2013-1-9,38,34,33,38,34,33,99,99,96,30.04,29.72,3,0,9,0.71
2013-1-10,33,29,24,33,28,23,98,93,90,29.88,29.79,2,0,8,0.00
2013-1-11,30,21,9,23,18,7,95,90,64,30.32,29.88,2,0,6,0.00
2013-1-12,23,17,11,20,15,9,95,92,87,30.43,30.33,1,0,3,0.00
2013-1-13,25,18,14,21,15,12,95,89,71,30.52,30.41,0,0,0,0.00
2013-1-14,23,20,16,22,18,15,96,92,85,30.58,30.43,0,0,0,0.00
2013-1-15,29,24,15,27,23,14,96,94,91,30.69,30.56,0,0,0,0.00
2013-1-16,40,7,-90,33,4,-90,100,91,75,30.75,30.66,0,0,0,0.30
2013-1-17,72,22,9,72,20,7,100,92,75,30.77,30.57,1,0,1,0.12
2013-1-18,37,24,16,32,22,14,100,93,81,30.57,30.40,1,0,3,0.12
2013-1-19,39,13,-90,34,11,-90,100,93,75,30.61,30.46,1,0,2,0.13
2013-1-20,40,22,-90,34,20,-90,100,93,81,30.67,30.49,0,0,1,0.05
2013-1-21,39,22,10,34,20,9,98,92,76,30.49,30.35,1,0,3,0.03
2013-1-22,38,21,9,32,19,7,98,92,75,30.41,30.25,0,0,1,0.00
2013-1-23,41,28,17,37,27,15,98,93,74,30.27,30.05,7,0,8,0.18
2013-1-24,46,36,31,38,34,30,98,93,73,30.27,30.13,3,0,6,0.05
2013-1-25,38,35,34,38,35,33,99,98,96,30.19,29.96,0,0,2,0.51
2013-1-26,38,35,33,37,34,33,99,98,94,29.96,29.90,2,0,7,0.15
2013-1-27,34,32,31,33,31,30,98,96,91,30.02,29.96,3,0,7,0.00
2013-1-28,33,31,30,31,30,29,98,96,93,29.97,29.87,1,0,3,0.00
2013-1-29,35,32,31,32,31,30,98,94,87,30.23,29.88,0,0,0,0.00
2013-1-30,37,34,31,36,34,31,99,97,95,30.29,30.18,3,0,4,0.10
2013-1-31,38,35,34,37,34,33,99,98,96,30.33,30.23,0,0,1,0.25
2013-2-1,45,35,27,38,34,27,99,95,74,30.49,30.23,7,0,8,0.00
2013-2-2,47,32,23,39,30,22,100,92,64,30.54,30.32,7,0,11,0.01
2013-2-3,45,30,-90,36,28,-90,100,92,69,30.32,30.19,3,0,6,0.00
2013-2-4,46,32,-90,38,30,-90,100,92,66,30.21,30.04,3,0,7,0.00
2013-2-5,50,36,31,40,34,31,98,92,53,30.03,29.85,5,0,12,0.08
2013-2-6,42,35,31,38,34,30,99,95,81,30.11,29.99,4,0,6,0.01
2013-2-7,41,35,31,36,33,30,98,93,80,30.03,29.94,4,0,7,0.04
2013-2-8,36,33,29,34,32,29,98,95,92,30.11,30.02,8,1,8,0.07
2013-2-9,33,30,26,30,29,26,98,94,86,30.21,30.07,6,0,8,0.00
2013-2-10,36,30,25,31,28,24,98,92,80,30.31,30.21,2,0,5,0.02
2013-2-11,40,33,29,33,30,27,97,90,74,30.27,30.21,2,0,4,0.01
2013-2-12,40,35,32,36,33,32,98,94,85,30.34,30.23,2,0,2,0.00
2013-2-13,44,38,28,37,34,27,98,88,72,30.36,30.19,8,2,15,0.00
2013-2-14,42,32,24,34,30,23,98,90,68,30.58,30.37,3,0,7,0.00
2013-2-15,50,37,29,36,32,28,97,85,52,30.58,30.30,7,0,8,0.00
2013-2-16,50,36,27,39,33,26,98,90,59,30.30,29.96,6,0,16,0.12
2013-2-17,38,34,31,35,32,30,98,92,85,30.14,30.00,5,1,11,0.05
2013-2-18,40,32,24,32,29,23,98,88,69,30.15,29.81,4,1,7,0.05
2013-2-19,37,33,29,35,31,27,97,93,84,29.89,29.71,3,0,7,0.03
2013-2-20,39,31,22,31,27,21,97,86,55,30.04,29.89,5,1,10,0.01
2013-2-21,34,29,21,32,27,20,97,93,82,30.11,30.04,5,0,5,0.00
2013-2-22,35,33,31,34,32,31,98,96,92,30.08,29.76,1,0,2,0.03
2013-2-23,36,32,29,33,29,27,98,91,81,30.27,29.78,0,0,0,0.01
2013-2-24,41,32,27,33,29,26,98,91,68,30.39,30.17,0,0,0,0.09
2013-2-25,39,32,27,35,30,26,97,93,83,30.19,30.01,0,0,0,0.14
2013-2-26,37,32,28,31,28,26,96,87,70,30.36,30.20,0,0,0,0.05
2013-2-27,46,32,25,37,29,24,98,89,60,30.37,30.30,2,0,3,0.58
2013-2-28,39,34,33,36,34,32,98,96,89,30.46,30.33,1,0,2,0.55
2013-3-1,49,37,32,44,36,31,99,96,82,30.48,30.39,1,0,4,0.79
2013-3-2,48,37,32,43,36,32,99,97,84,30.39,29.98,1,0,3,0.23
2013-3-3,40,33,24,39,28,23,99,83,57,30.20,29.94,10,2,27,0.04
2013-3-4,43,30,17,27,22,16,97,77,42,30.34,30.14,7,0,10,0.00
2013-3-5,46,35,23,32,26,20,91,71,39,30.16,29.82,6,0,8,0.00
2013-3-6,50,38,33,41,35,30,97,88,67,29.91,29.59,8,1,22,0.23
2013-3-7,48,36,29,37,33,28,98,88,55,30.07,29.92,5,0,6,0.48
2013-3-8,48,33,22,34,26,21,98,80,36,30.16,29.99,6,1,12,0.01
2013-3-9,44,34,24,34,30,24,98,87,64,30.47,30.16,3,0,6,0.00
2013-3-10,48,35,24,35,30,23,98,84,47,30.48,30.31,9,0,13,0.08
2013-3-11,48,38,28,37,32,26,98,82,43,30.32,30.25,7,1,11,0.00
2013-3-12,47,37,30,44,36,29,99,95,88,30.27,30.15,3,0,4,0.15
2013-3-13,129,43,34,100,40,34,100,90,50,30.26,30.14,1,0,4,0.01
2013-3-14,59,41,33,46,37,32,98,88,62,30.20,30.04,1,0,2,0.00
2013-3-15,55,40,31,43,36,30,98,87,53,30.18,30.08,6,0,12,0.00
2013-3-16,47,38,32,42,36,32,98,93,80,30.11,29.72,8,0,23,0.20
2013-3-17,38,32,30,32,30,28,95,89,73,30.09,29.78,13,2,18,0.01
2013-3-18,38,32,26,35,30,25,97,92,79,30.21,30.03,6,0,14,0.04
2013-3-19,44,34,22,34,28,20,97,80,56,30.33,29.92,9,2,16,0.07
2013-3-20,41,37,35,39,36,33,98,94,88,29.91,29.70,4,0,8,0.50
2013-3-21,35,32,30,32,29,26,97,89,77,30.07,29.84,12,2,27,0.00
2013-3-22,36,31,28,29,28,26,96,88,69,30.29,30.06,10,1,16,0.05
2013-3-23,39,31,24,28,26,20,96,83,48,30.38,30.30,9,1,12,0.14
2013-3-24,43,31,19,26,21,15,94,71,34,30.39,30.23,6,1,11,0.11
2013-3-25,50,36,23,31,25,21,91,68,37,30.24,30.02,5,1,7,0.00
2013-3-26,134,44,27,35,25,-100,97,71,36,30.02,29.91,8,1,12,0.00
2013-3-27,60,43,31,40,35,30,95,78,43,30.00,29.90,6,0,8,0.00
2013-3-28,59,44,33,44,38,32,97,84,55,30.09,29.99,4,0,6,0.01
2013-3-29,56,42,35,46,39,34,98,90,63,30.24,30.10,3,0,5,0.06
2013-3-30,62,44,29,46,36,29,98,79,38,30.32,30.15,5,1,6,0.01
2013-3-31,70,44,28,42,34,28,98,74,26,30.15,29.90,4,0,7,0.00
2013-4-1,67,46,29,44,37,29,98,75,35,30.00,29.90,6,1,11,0.00
2013-4-2,62,43,31,45,38,30,98,83,52,30.10,30.00,9,1,11,0.00
2013-4-3,62,46,33,45,39,33,98,79,40,30.12,30.01,7,1,16,0.00
2013-4-4,60,46,36,50,42,34,97,86,53,30.02,29.74,6,0,16,0.42
2013-4-5,52,45,41,49,44,40,98,94,83,29.91,29.83,6,0,10,0.39
2013-4-6,53,45,39,45,40,34,98,83,52,29.91,29.86,10,1,17,0.37
2013-4-7,50,42,36,44,37,33,97,85,53,29.83,29.62,15,2,18,0.36
2013-4-8,45,37,29,40,34,28,98,88,66,30.22,29.78,9,1,15,0.01
2013-4-9,52,38,26,37,31,25,97,78,43,30.34,30.23,5,1,15,0.01
2013-4-10,47,42,37,45,39,35,98,90,71,30.24,29.87,3,0,12,0.36
2013-4-11,47,40,33,40,35,32,98,86,60,30.14,30.05,9,1,15,0.00
2013-4-12,55,41,29,41,33,28,98,77,36,30.12,29.65,6,1,14,0.31
2013-4-13,38,35,33,35,32,28,97,90,67,29.88,29.61,11,2,25,0.27
2013-4-14,45,35,29,35,32,27,97,87,51,29.96,29.85,6,1,8,0.50
2013-4-15,44,37,27,28,24,20,98,62,42,30.06,29.86,14,4,19,0.00
2013-4-16,43,36,27,24,17,12,85,50,33,30.32,30.06,15,4,22,0.00
2013-4-17,50,36,23,26,18,9,89,56,21,30.42,30.32,12,2,17,0.00
2013-4-18,49,37,25,36,29,23,94,76,46,30.40,30.26,7,1,10,0.00
2013-4-19,47,42,37,46,40,35,98,95,89,30.25,29.97,7,0,9,0.89
2013-4-20,50,45,42,43,40,37,98,84,61,30.11,30.00,11,2,14,0.03
2013-4-21,51,42,34,41,37,33,98,85,53,30.18,29.99,16,2,28,0.13
2013-4-22,46,36,32,33,25,18,96,66,35,30.41,30.19,8,2,16,0.00
2013-5-1,53,48,47,32,19,-100,53,37,35,30.59,30.58,7,-51,9,0.00
2013-7-25,94,81,58,54,46,37,71,35,14,29.90,29.85,7,1,10,0.00
2013-7-26,95,69,46,53,45,30,87,52,10,30.00,29.83,5,0,8,0.00
2013-7-27,84,66,47,50,43,35,87,51,18,29.92,29.75,7,1,15,0.00
2013-7-28,82,63,44,50,44,37,89,58,20,29.81,29.71,8,1,12,0.00
2013-7-29,83,63,44,52,45,35,95,59,18,29.85,29.77,6,1,10,0.00
2013-7-30,86,67,50,51,45,35,83,52,17,29.99,29.86,7,1,11,0.00
2013-7-31,93,71,48,56,47,31,85,50,13,30.00,29.79,8,1,14,0.00
2013-8-1,78,62,53,58,53,49,94,75,42,29.86,29.73,6,1,17,0.11
2013-8-2,67,59,52,57,55,51,96,88,65,30.00,29.85,7,0,7,0.26
2013-8-3,74,59,49,59,54,48,98,84,52,30.05,29.97,2,0,5,0.00
2013-8-4,84,66,48,58,53,46,98,68,28,30.01,29.85,7,1,9,0.01
2013-8-5,85,66,49,57,52,47,97,68,27,29.91,29.78,6,1,16,0.00
2013-8-6,88,69,51,59,53,48,97,63,25,29.90,29.78,6,1,8,0.00
2013-8-7,89,70,50,57,50,40,96,58,18,29.85,29.75,6,1,12,0.00
2013-8-8,90,68,48,57,50,45,92,60,23,29.87,29.72,5,0,7,0.00
2013-8-9,92,74,53,64,54,48,93,55,23,29.78,29.66,7,1,14,0.00
2013-8-10,91,73,53,62,55,50,88,57,27,29.81,29.68,7,1,9,0.00
2013-8-11,86,69,57,66,58,55,94,71,35,29.87,29.77,5,0,8,0.00
2013-8-12,89,69,53,64,57,50,96,69,28,29.91,29.78,7,1,9,0.07
2013-8-13,88,70,54,60,54,47,92,62,27,29.95,29.83,3,0,6,0.00
2013-8-14,94,71,51,63,53,40,95,61,17,29.88,29.70,7,0,9,0.00
2013-8-15,94,71,54,59,54,48,90,60,21,29.86,29.70,3,0,8,0.00
2013-8-16,89,71,52,59,54,50,95,60,28,29.87,29.78,6,1,11,0.00
2013-8-17,85,72,59,62,59,55,94,67,36,29.91,29.77,9,1,11,0.03
2013-8-18,84,67,51,58,51,46,97,64,27,29.97,29.86,8,1,12,0.00
2013-8-19,84,66,48,55,49,44,94,60,25,29.96,29.83,12,1,18,0.00
2013-8-20,82,64,48,54,46,32,94,59,17,29.96,29.87,8,1,13,0.00
2013-8-21,87,64,42,51,43,31,91,55,14,30.00,29.86,3,0,8,0.00
2013-8-22,82,66,49,65,54,44,82,66,31,29.91,29.71,8,0,15,0.00
2013-8-23,81,66,54,60,56,51,94,71,40,29.86,29.69,6,1,12,0.00
2013-8-24,89,68,50,56,50,44,95,60,24,29.78,29.59,6,1,10,0.00
2013-8-25,85,68,53,57,52,50,89,61,32,29.81,29.65,6,1,14,0.00
2013-8-26,82,65,53,59,54,48,97,72,31,29.92,29.76,12,1,29,0.26
2013-8-27,86,66,49,58,53,47,98,70,27,29.89,29.69,3,0,7,0.00
2013-8-28,87,68,53,61,54,51,90,66,30,29.79,29.68,5,0,13,0.00
2013-8-29,85,66,54,62,56,50,93,73,34,29.93,29.76,8,0,14,0.02
2013-8-30,79,64,50,58,53,49,97,72,39,30.05,29.93,8,1,13,0.00
2013-8-31,88,66,47,56,51,42,97,64,20,30.02,29.81,4,0,7,0.00
2013-9-1,92,69,48,65,53,45,92,63,20,29.82,29.67,5,0,7,0.00
2013-9-2,85,68,60,61,57,53,90,70,34,29.80,29.67,8,0,10,0.00
2013-9-3,80,67,60,67,60,57,90,79,50,29.92,29.81,4,0,8,0.01
2013-9-4,91,72,56,63,58,51,95,66,26,29.92,29.77,6,0,11,0.00
2013-9-5,80,69,59,67,63,57,95,81,58,29.91,29.72,7,1,16,0.44
2013-9-6,72,62,55,57,55,52,97,80,55,30.03,29.83,7,1,13,0.00
2013-9-7,76,62,52,55,53,47,96,75,37,30.03,29.89,7,0,10,0.00
2013-9-8,70,60,51,55,52,49,97,78,49,29.97,29.91,5,0,11,0.01
2013-9-9,81,64,53,57,54,51,96,72,37,29.98,29.86,5,0,9,0.00
2013-9-10,87,65,47,58,52,45,98,70,24,29.96,29.85,4,0,8,0.00
2013-9-11,92,68,47,61,50,39,98,63,16,29.98,29.86,9,1,13,0.00
2013-9-12,94,71,54,58,51,45,83,56,19,29.90,29.72,4,0,9,0.00
2013-9-13,88,68,51,59,54,50,95,66,28,29.77,29.63,5,1,12,0.00
2013-9-14,88,70,53,61,51,44,94,59,21,29.79,29.70,7,1,13,0.00
2013-9-15,89,73,58,61,51,44,94,49,26,29.75,29.52,11,1,16,0.03
2013-9-16,73,62,52,61,54,48,98,78,44,29.77,29.59,10,1,15,0.01
2013-9-17,71,55,45,54,49,44,97,83,46,29.77,29.53,10,1,15,0.26
2013-9-18,59,51,47,51,48,45,96,89,65,30.08,29.73,5,1,11,0.36
2013-9-19,71,53,40,50,44,38,98,76,31,30.15,29.92,5,1,9,0.01
2013-9-20,81,57,37,50,42,34,98,66,19,29.91,29.50,5,0,13,0.00
2013-9-21,64,54,44,52,47,42,96,79,53,29.66,29.53,5,0,7,0.00
2013-9-22,59,51,46,51,48,44,96,88,65,29.74,29.61,4,0,9,0.30
2013-9-23,60,52,46,50,47,44,97,86,58,29.93,29.74,6,0,12,0.03
2013-9-24,56,49,44,50,47,44,98,93,71,29.90,29.72,4,0,14,0.98
2013-9-25,51,46,43,46,44,42,98,93,80,29.79,29.72,2,0,7,0.21
2013-9-26,61,47,37,48,41,35,98,84,39,30.02,29.80,3,0,5,0.01
2013-9-27,52,42,33,46,40,32,98,93,76,30.07,29.98,4,0,7,0.09
2013-9-28,54,49,45,52,48,44,98,96,92,29.98,29.54,4,0,8,0.57
2013-9-29,52,47,44,51,46,43,98,95,90,29.73,29.50,9,0,18,0.54
2013-9-30,52,46,41,46,43,40,98,89,68,29.94,29.49,11,1,21,0.37
2013-10-1,53,45,40,45,42,38,98,90,62,30.16,29.93,9,0,19,0.04
2013-10-2,55,44,37,42,38,34,98,83,49,30.17,29.94,5,0,8,0.00
2013-10-3,55,41,32,43,36,31,98,85,48,30.40,29.96,4,0,9,0.01
2013-10-4,56,39,27,39,32,27,98,81,37,30.54,30.41,3,0,7,0.00
2013-10-5,61,42,29,42,35,28,98,78,32,30.49,30.33,3,0,6,0.01
2013-10-6,70,46,30,46,36,29,98,74,29,30.33,29.97,2,0,7,0.00
2013-10-7,60,46,31,45,37,30,98,75,45,30.00,29.87,8,1,17,0.00
2013-10-8,46,42,36,43,40,35,98,91,80,29.98,29.88,4,0,5,0.25
2013-10-9,55,41,31,45,38,30,98,91,67,30.05,29.92,5,0,8,0.01
2013-10-10,51,43,36,45,40,35,98,92,70,30.00,29.87,2,0,5,0.00
2013-10-11,52,43,36,46,40,36,98,90,68,30.11,30.00,3,0,4,0.00
2013-10-12,56,43,32,44,38,32,98,85,47,30.10,29.99,4,0,5,0.00
2013-10-13,50,36,29,43,35,29,98,94,74,30.33,30.10,3,0,5,0.01
2013-10-14,53,39,28,45,36,27,98,89,65,30.43,30.33,3,0,6,0.00
2013-10-15,56,38,26,41,34,26,98,85,46,30.44,30.23,5,0,7,0.01
2013-10-16,56,42,33,43,38,33,97,86,55,30.23,30.13,2,0,4,0.00
2013-10-17,57,40,28,44,36,27,98,88,55,30.31,30.18,4,0,6,0.00
2013-10-18,56,39,28,43,35,28,98,89,53,30.35,30.23,3,0,4,0.01
2013-10-19,58,41,28,46,36,28,98,87,48,30.25,30.10,3,0,4,0.00
2013-10-20,58,42,28,46,37,27,98,87,58,30.21,30.14,5,0,8,0.01
2013-10-21,63,43,30,48,39,30,98,87,49,30.28,30.17,2,0,6,0.00
2013-10-22,67,44,30,51,40,30,98,88,52,30.25,30.11,4,0,5,0.01
2013-10-23,67,44,30,52,40,30,98,89,53,30.19,30.07,2,0,3,0.00
2013-10-24,65,45,31,49,40,30,98,85,43,30.15,30.06,3,0,4,0.01
2013-10-25,66,43,30,49,39,29,98,87,48,30.29,30.16,2,0,3,0.00
2013-10-26,63,42,30,47,38,29,98,88,44,30.33,30.10,2,0,4,0.01
2013-10-27,55,42,29,49,37,29,98,85,55,30.09,29.67,18,2,34,0.01
2013-10-28,46,42,35,28,23,20,58,48,40,29.86,29.77,15,5,34,0.00
2013-10-29,48,35,26,31,25,21,95,71,44,30.05,29.86,8,0,8,0.00
2013-10-30,48,34,22,34,28,21,96,81,46,30.16,30.06,6,0,12,0.00
2013-10-31,41,37,30,40,36,28,97,94,91,30.22,30.11,1,0,2,0.09
2013-11-1,55,42,38,45,40,36,98,90,65,30.30,30.02,3,0,6,0.00
2013-11-2,46,41,36,44,38,31,97,91,75,30.02,29.68,7,0,15,0.31
2013-11-3,38,34,33,34,32,30,97,93,74,30.03,29.84,9,0,12,0.02
2013-11-4,38,33,31,33,31,30,97,94,81,30.24,30.02,0,0,0,0.02
2013-11-5,33,31,26,32,30,25,97,96,93,30.26,30.21,0,0,0,0.00
2013-11-6,40,35,33,38,34,32,98,97,92,30.41,30.26,3,0,6,0.12
2013-11-7,42,38,35,42,37,35,99,97,91,30.29,29.83,13,1,19,1.89
2013-11-8,44,36,32,41,35,31,99,97,87,30.22,29.97,2,0,4,0.49
2013-11-9,44,37,29,40,35,29,99,93,80,30.26,30.15,5,0,9,0.00
2013-11-10,50,41,36,47,39,35,98,95,84,30.23,30.13,2,0,4,0.04
2013-11-11,58,40,32,50,38,32,99,94,75,30.35,30.23,3,0,5,0.00
2013-11-12,48,39,30,45,38,29,98,97,88,30.39,30.27,2,0,4,0.04
2013-11-13,47,42,38,44,41,37,99,96,86,30.38,30.26,3,0,8,0.04
2013-11-14,47,40,36,42,38,35,99,93,77,30.25,29.93,4,0,7,0.00
2013-11-15,40,36,33,36,35,33,97,93,81,29.93,29.41,5,0,8,0.05
2013-11-16,35,34,33,33,33,33,98,97,93,29.72,29.39,0,0,0,0.04
2013-11-17,37,34,33,36,34,33,98,96,92,30.04,29.72,2,0,6,0.34
2013-11-18,38,34,32,37,34,32,99,97,95,30.04,29.82,3,0,5,0.44
2013-11-19,38,36,34,37,36,33,99,99,98,29.81,29.71,2,0,3,0.91
2013-11-20,35,29,19,35,25,18,99,86,55,30.43,29.81,5,1,10,0.01
2013-11-21,18,16,14,17,15,13,95,95,94,30.54,30.44,0,0,0,0.00